Terminal Aerodrome Forecast
Issued by NWS

Home | Current Version | Previous Version | Text Only | Print | Product List | Glossary On
Versions: 1 2 3 4 5 6 7 8 9 10 11 12
758
FTUS44 KBMX 041122
TAFEET
TAF
KEET 041122Z 0412/0512 09009KT 6SM -RA BR SCT010 OVC025
     FM041600 08006KT 6SM -RA BR OVC007
     FM050000 08003KT 2SM BR OVC004
     FM050600 03004KT 3SM -RA BR OVC004=

USA.gov is the U.S. government's official web portal to all federal, state and local government web resources and services.